createdAt,value
2022-11-10T00:02:28.680Z,3.60
2022-11-10T00:05:15.677Z,3.65
2022-11-10T00:08:06.087Z,3.53
2022-11-10T00:11:01.733Z,3.58
2022-11-10T00:14:07.410Z,4.10
2022-11-10T00:17:02.296Z,3.90
2022-11-10T00:19:47.442Z,4.18
2022-11-10T00:22:37.676Z,3.47
2022-11-10T00:25:24.363Z,4.25
2022-11-10T00:28:09.468Z,3.20
2022-11-10T00:30:54.929Z,3.53
2022-11-10T00:33:43.406Z,3.90
2022-11-10T00:36:28.678Z,3.70
2022-11-10T00:39:14.318Z,3.60
2022-11-10T00:41:59.695Z,3.83
2022-11-10T00:44:45.208Z,3.17
2022-11-10T00:47:30.406Z,3.28
2022-11-10T00:50:15.991Z,5.40
2022-11-10T00:53:01.371Z,3.40
2022-11-10T00:55:47.098Z,4.18
2022-11-10T00:58:32.401Z,3.33
2022-11-10T01:01:20.053Z,3.05
2022-11-10T01:04:05.573Z,3.38
2022-11-10T01:06:52.574Z,3.30
2022-11-10T01:09:37.603Z,3.30
2022-11-10T01:12:23.131Z,3.38
2022-11-10T01:15:09.225Z,3.22
2022-11-10T01:17:55.990Z,2.92
2022-11-10T01:20:41.159Z,3.65
2022-11-10T01:23:26.827Z,3.63
2022-11-10T01:26:12.372Z,3.63
2022-11-10T01:28:57.947Z,3.08
2022-11-10T01:31:43.062Z,3.17
2022-11-10T01:34:28.407Z,3.13
2022-11-10T01:37:13.844Z,3.28
2022-11-10T01:39:59.244Z,3.10
2022-11-10T01:42:53.434Z,3.15
2022-11-10T01:45:44.441Z,3.15
2022-11-10T01:48:38.725Z,3.13
2022-11-10T01:51:33.312Z,3.10
2022-11-10T01:54:25.064Z,3.05
2022-11-10T01:59:58.005Z,3.13
2022-11-10T02:03:05.173Z,3.40
2022-11-10T02:05:51.186Z,3.33
2022-11-10T02:08:37.563Z,3.88
2022-11-10T02:11:23.689Z,3.22
2022-11-10T02:14:09.779Z,3.25
2022-11-10T02:16:55.129Z,3.70
2022-11-10T02:19:42.067Z,2.92
2022-11-10T02:22:27.430Z,3.38
2022-11-10T02:25:17.411Z,4.05
2022-11-10T02:28:03.193Z,3.83
2022-11-10T02:30:48.959Z,3.45
2022-11-10T02:33:34.149Z,3.42
2022-11-10T02:36:19.613Z,3.45
2022-11-10T02:39:04.946Z,3.05
2022-11-10T02:41:50.173Z,3.55
2022-11-10T02:44:39.017Z,3.13
2022-11-10T02:47:24.201Z,3.95
2022-11-10T02:50:09.712Z,3.80
2022-11-10T02:52:55.192Z,3.08
2022-11-10T02:55:40.423Z,3.45
2022-11-10T02:58:25.469Z,3.37
2022-11-10T03:01:11.212Z,3.28
2022-11-10T03:03:56.253Z,3.45
2022-11-10T03:06:41.728Z,3.55
2022-11-10T03:09:27.017Z,3.00
2022-11-10T03:12:12.255Z,3.40
2022-11-10T03:14:57.622Z,4.10
2022-11-10T03:17:43.228Z,3.60
2022-11-10T03:20:28.624Z,3.47
2022-11-10T03:23:14.739Z,3.20
2022-11-10T03:26:03.115Z,4.05
2022-11-10T03:28:48.356Z,3.67
2022-11-10T03:31:33.765Z,3.10
2022-11-10T03:34:19.354Z,5.03
2022-11-10T03:37:04.681Z,3.60
2022-11-10T03:39:50.448Z,3.33
2022-11-10T03:42:35.926Z,3.53
2022-11-10T03:45:21.449Z,3.15
2022-11-10T03:48:06.849Z,4.05
2022-11-10T03:50:52.276Z,3.40
2022-11-10T03:53:37.745Z,3.85
2022-11-10T03:56:23.202Z,3.40
2022-11-10T03:59:08.491Z,3.80
2022-11-10T04:01:53.984Z,3.58
2022-11-10T04:04:57.903Z,4.30
2022-11-10T04:08:01.997Z,3.65
2022-11-10T04:10:49.912Z,3.53
2022-11-10T04:13:53.702Z,3.47
2022-11-10T04:16:39.010Z,3.70
2022-11-10T04:19:24.581Z,3.80
2022-11-10T04:22:29.990Z,3.53
2022-11-10T04:25:15.286Z,3.58
2022-11-10T04:28:00.804Z,3.38
2022-11-10T04:30:45.856Z,3.53
2022-11-10T04:33:30.970Z,3.90
2022-11-10T04:36:22.788Z,3.60
2022-11-10T04:39:08.878Z,3.97
2022-11-10T04:41:58.400Z,3.72
2022-11-10T04:44:46.582Z,3.95
2022-11-10T04:47:31.981Z,4.50
2022-11-10T04:50:17.304Z,4.15
2022-11-10T04:53:02.535Z,3.47
2022-11-10T04:55:48.681Z,4.20
2022-11-10T04:58:33.988Z,4.15
2022-11-10T05:01:21.857Z,4.25
2022-11-10T05:04:07.630Z,4.45
2022-11-10T05:06:53.855Z,3.50
2022-11-10T05:09:39.208Z,4.03
2022-11-10T05:12:24.205Z,3.92
2022-11-10T05:15:10.155Z,3.53
2022-11-10T05:17:55.593Z,4.30
2022-11-10T05:20:41.003Z,4.35
2022-11-10T05:23:46.511Z,4.88
2022-11-10T05:26:31.878Z,3.80
2022-11-10T05:29:17.114Z,4.13
2022-11-10T05:32:02.637Z,4.75
2022-11-10T05:34:47.962Z,4.43
2022-11-10T05:37:33.464Z,4.03
2022-11-10T05:40:18.998Z,3.75
2022-11-10T05:43:04.380Z,4.53
2022-11-10T05:45:50.191Z,4.65
2022-11-10T05:48:35.223Z,4.15
2022-11-10T05:51:20.527Z,4.63
2022-11-10T05:54:06.186Z,4.05
2022-11-10T05:56:51.372Z,4.10
2022-11-10T05:59:36.914Z,3.85
2022-11-10T06:02:22.213Z,3.70
2022-11-10T06:05:08.242Z,3.00
2022-11-10T06:07:53.932Z,3.47
2022-11-10T06:10:39.991Z,3.85
2022-11-10T06:13:25.869Z,3.63
2022-11-10T06:16:11.104Z,3.50
2022-11-10T06:18:56.422Z,3.67
2022-11-10T06:21:41.815Z,3.08
2022-11-10T06:24:27.108Z,4.57
2022-11-10T06:27:12.511Z,3.60
2022-11-10T06:29:57.837Z,4.68
2022-11-10T06:32:46.432Z,4.82
2022-11-10T06:35:31.674Z,3.75
2022-11-10T06:38:16.916Z,5.28
2022-11-10T06:41:02.008Z,4.43
2022-11-10T06:43:47.480Z,5.03
2022-11-10T06:46:32.583Z,6.13
2022-11-10T06:49:18.016Z,5.05
2022-11-10T06:52:03.455Z,4.75
2022-11-10T06:54:48.805Z,4.20
2022-11-10T06:57:39.000Z,4.38
2022-11-10T07:00:25.877Z,4.15
2022-11-10T07:03:14.064Z,4.88
2022-11-10T07:05:59.356Z,3.90
2022-11-10T07:08:45.406Z,8.60
2022-11-10T07:11:30.543Z,3.83
2022-11-10T07:14:15.787Z,4.50
2022-11-10T07:17:01.241Z,4.25
2022-11-10T07:19:46.729Z,4.68
2022-11-10T07:22:31.992Z,3.92
2022-11-10T07:25:17.391Z,4.03
2022-11-10T07:28:08.484Z,4.18
2022-11-10T07:30:54.837Z,4.60
2022-11-10T07:33:40.139Z,3.95
2022-11-10T07:36:28.788Z,3.50
2022-11-10T07:39:14.126Z,3.72
2022-11-10T07:41:59.640Z,4.35
2022-11-10T07:44:44.995Z,4.32
2022-11-10T07:47:30.268Z,3.83
2022-11-10T07:50:16.264Z,3.83
2022-11-10T07:53:13.358Z,4.00
2022-11-10T07:55:58.803Z,4.05
2022-11-10T07:58:44.758Z,3.22
2022-11-10T08:01:30.416Z,3.33
2022-11-10T08:04:15.693Z,4.05
2022-11-10T08:07:01.243Z,4.85
2022-11-10T08:09:46.664Z,5.30
2022-11-10T08:12:33.811Z,4.45
2022-11-10T08:15:19.126Z,3.53
2022-11-10T08:18:13.316Z,3.63
2022-11-10T08:21:01.281Z,3.50
2022-11-10T08:23:46.552Z,3.78
2022-11-10T08:26:32.387Z,4.57
2022-11-10T08:29:17.966Z,3.85
2022-11-10T08:32:03.561Z,4.50
2022-11-10T08:34:49.230Z,4.22
2022-11-10T08:37:34.275Z,3.75
2022-11-10T08:40:20.887Z,3.40
2022-11-10T08:43:07.482Z,3.10
2022-11-10T08:45:56.848Z,4.40
2022-11-10T08:48:41.912Z,4.10
2022-11-10T08:51:27.501Z,3.30
2022-11-10T08:54:12.879Z,3.58
2022-11-10T08:56:58.513Z,3.72
2022-11-10T08:59:43.751Z,3.45
2022-11-10T09:02:29.152Z,3.47
2022-11-10T09:05:14.598Z,3.70
2022-11-10T09:07:59.855Z,4.13
2022-11-10T09:10:47.775Z,3.08
2022-11-10T09:13:33.199Z,3.58
2022-11-10T09:16:18.789Z,4.15
2022-11-10T09:19:04.385Z,4.22
2022-11-10T09:21:49.763Z,4.55
2022-11-10T09:24:35.250Z,3.95
2022-11-10T09:27:20.645Z,4.13
2022-11-10T09:30:07.292Z,3.45
2022-11-10T09:32:57.091Z,3.38
2022-11-10T09:35:42.915Z,4.10
2022-11-10T09:38:28.210Z,3.50
2022-11-10T09:41:14.962Z,4.32
2022-11-10T09:44:11.532Z,4.18
2022-11-10T09:47:12.389Z,4.50
2022-11-10T09:50:03.748Z,3.85
2022-11-10T09:52:50.039Z,3.72
2022-11-10T09:55:43.486Z,3.60
2022-11-10T09:58:43.364Z,3.53
2022-11-10T10:01:38.102Z,3.17
2022-11-10T10:04:51.744Z,3.88
2022-11-10T10:08:03.949Z,4.63
2022-11-10T10:10:59.729Z,2.88
2022-11-10T10:14:04.915Z,3.45
2022-11-10T10:17:27.155Z,3.28
2022-11-10T10:20:34.326Z,3.72
2022-11-10T10:24:02.094Z,4.75
2022-11-10T10:26:53.230Z,3.78
2022-11-10T10:29:47.182Z,3.70
2022-11-10T10:32:32.586Z,3.55
2022-11-10T10:35:18.680Z,2.75
2022-11-10T10:38:05.451Z,4.43
2022-11-10T10:40:57.437Z,2.95
2022-11-10T10:46:47.349Z,3.85
2022-11-10T10:49:36.735Z,3.33
2022-11-10T10:52:25.251Z,2.85
2022-11-10T10:55:13.912Z,2.95
2022-11-10T10:58:23.882Z,4.28
2022-11-10T11:01:15.770Z,4.28
2022-11-10T11:04:06.040Z,2.88
2022-11-10T11:07:03.319Z,3.28
2022-11-10T11:09:49.004Z,3.10
2022-11-10T11:12:34.339Z,3.30
2022-11-10T11:15:21.794Z,3.70
2022-11-10T11:18:16.013Z,2.20
2022-11-10T11:21:13.655Z,3.72
2022-11-10T11:24:28.111Z,2.85
2022-11-10T11:27:43.108Z,2.47
2022-11-10T11:30:35.914Z,2.17
2022-11-10T11:33:27.923Z,3.03
2022-11-10T11:36:33.694Z,2.72
2022-11-10T11:39:27.082Z,2.58
2022-11-10T11:43:05.702Z,2.42
2022-11-10T11:45:57.187Z,3.78
2022-11-10T11:49:20.721Z,4.95
2022-11-10T11:52:08.702Z,3.08
2022-11-10T11:55:11.748Z,2.30
2022-11-10T11:58:28.671Z,2.03
2022-11-10T12:01:37.226Z,2.05
2022-11-10T12:04:41.946Z,2.63
2022-11-10T12:07:30.341Z,1.73
2022-11-10T12:10:35.211Z,2.85
2022-11-10T12:13:25.395Z,1.90
2022-11-10T12:16:15.436Z,2.60
2022-11-10T12:19:26.170Z,2.10
2022-11-10T12:22:24.851Z,2.90
2022-11-10T12:25:42.503Z,2.05
2022-11-10T12:28:34.129Z,2.05
2022-11-10T12:31:23.375Z,1.95
2022-11-10T12:34:43.736Z,2.30
2022-11-10T12:37:38.739Z,2.40
2022-11-10T12:40:31.173Z,2.13
2022-11-10T12:43:39.418Z,2.55
2022-11-10T12:46:24.933Z,2.70
2022-11-10T12:49:27.790Z,2.97
2022-11-10T12:52:23.700Z,2.40
2022-11-10T12:55:14.097Z,2.38
2022-11-10T12:58:01.330Z,2.17
2022-11-10T13:00:58.455Z,2.38
2022-11-10T13:03:59.269Z,2.40
2022-11-10T13:06:49.670Z,1.90
2022-11-10T13:09:38.593Z,2.38
2022-11-10T13:12:25.826Z,2.20
2022-11-10T13:15:39.061Z,3.00
2022-11-10T13:18:44.166Z,1.80
2022-11-10T13:21:51.273Z,2.00
2022-11-10T13:24:44.268Z,1.92
2022-11-10T13:27:50.448Z,2.90
2022-11-10T13:30:48.688Z,1.98
2022-11-10T13:33:39.185Z,2.05
2022-11-10T13:36:39.107Z,1.98
2022-11-10T13:39:28.397Z,1.63
2022-11-10T13:42:19.454Z,1.67
2022-11-10T13:45:34.389Z,2.10
2022-11-10T13:48:40.193Z,2.08
2022-11-10T13:51:42.569Z,1.80
2022-11-10T13:57:26.386Z,3.47
2022-11-10T14:00:14.717Z,1.98
2022-11-10T14:03:02.164Z,2.30
2022-11-10T14:06:02.769Z,2.08
2022-11-10T14:09:05.291Z,2.63
2022-11-10T14:11:55.258Z,2.35
2022-11-10T14:14:54.827Z,2.63
2022-11-10T14:17:44.182Z,2.65
2022-11-10T14:23:51.132Z,2.08
2022-11-10T14:26:48.266Z,2.40
2022-11-10T14:29:40.126Z,2.13
2022-11-10T14:32:26.456Z,2.47
2022-11-10T14:35:24.171Z,2.32
2022-11-10T14:38:21.846Z,2.97
2022-11-10T14:41:22.383Z,5.28
2022-11-10T14:44:22.595Z,3.33
2022-11-10T14:47:26.961Z,5.00
2022-11-10T14:50:20.038Z,1.83
2022-11-10T14:53:32.072Z,1.90
2022-11-10T14:56:22.149Z,2.22
2022-11-10T14:59:10.932Z,1.90
2022-11-10T15:01:58.804Z,2.30
2022-11-10T15:04:46.261Z,2.15
2022-11-10T15:07:31.785Z,3.58
2022-11-10T15:10:41.811Z,2.20
2022-11-10T15:13:27.010Z,2.53
2022-11-10T15:16:29.821Z,2.40
2022-11-10T15:19:38.627Z,2.17
2022-11-10T15:22:31.143Z,1.85
2022-11-10T15:25:19.907Z,1.85
2022-11-10T15:28:12.926Z,1.88
2022-11-10T15:31:01.257Z,1.67
2022-11-10T15:33:49.317Z,2.00
2022-11-10T15:36:39.398Z,2.40
2022-11-10T15:39:26.950Z,1.80
2022-11-10T15:42:18.680Z,2.22
2022-11-10T15:45:04.966Z,2.30
2022-11-10T15:47:50.480Z,1.92
2022-11-10T15:50:35.709Z,1.90
2022-11-10T15:53:30.399Z,2.63
2022-11-10T15:56:17.816Z,2.47
2022-11-10T15:59:03.722Z,2.70
2022-11-10T16:01:49.697Z,2.85
2022-11-10T16:04:35.072Z,3.58
2022-11-10T16:07:21.073Z,3.10
2022-11-10T16:10:06.971Z,3.67
2022-11-10T16:12:52.304Z,3.63
2022-11-10T16:15:38.787Z,3.83
2022-11-10T16:18:26.779Z,2.30
2022-11-10T16:21:20.381Z,2.67
2022-11-10T16:24:06.086Z,2.58
2022-11-10T16:26:51.499Z,2.30
2022-11-10T16:29:37.489Z,2.58
2022-11-10T16:32:23.214Z,3.15
2022-11-10T16:35:15.238Z,2.95
2022-11-10T16:38:00.287Z,3.30
2022-11-10T16:40:48.807Z,4.03
2022-11-10T16:43:34.002Z,2.83
2022-11-10T16:46:28.611Z,2.30
2022-11-10T16:49:35.074Z,2.22
2022-11-10T16:52:21.389Z,2.15
2022-11-10T16:55:24.274Z,2.91
2022-11-10T16:58:09.672Z,3.30
2022-11-10T17:01:00.036Z,2.97
2022-11-10T17:03:53.696Z,3.05
2022-11-10T17:06:38.865Z,2.90
2022-11-10T17:09:27.922Z,3.22
2022-11-10T17:12:14.498Z,4.07
2022-11-10T17:14:59.522Z,3.92
2022-11-10T17:17:47.530Z,3.85
2022-11-10T17:20:37.654Z,3.25
2022-11-10T17:23:25.245Z,4.05
2022-11-10T17:26:14.078Z,4.18
2022-11-10T17:28:59.419Z,2.95
2022-11-10T17:31:45.294Z,2.63
2022-11-10T17:34:30.737Z,2.67
2022-11-10T17:37:16.633Z,3.00
2022-11-10T17:40:19.355Z,2.53
2022-11-10T17:43:04.484Z,3.17
2022-11-10T17:45:50.007Z,2.70
2022-11-10T17:48:35.549Z,2.70
2022-11-10T17:51:22.456Z,2.55
2022-11-10T17:54:15.193Z,2.45
2022-11-10T17:57:00.315Z,2.53
2022-11-10T17:59:45.681Z,2.92
2022-11-10T18:02:31.023Z,3.60
2022-11-10T18:05:17.799Z,4.50
2022-11-10T18:08:03.368Z,3.50
2022-11-10T18:10:50.983Z,3.22
2022-11-10T18:13:40.547Z,2.85
2022-11-10T18:16:26.970Z,2.60
2022-11-10T18:19:12.112Z,2.35
2022-11-10T18:21:57.527Z,2.40
2022-11-10T18:24:42.719Z,3.65
2022-11-10T18:27:28.489Z,3.28
2022-11-10T18:30:14.710Z,3.45
2022-11-10T18:33:04.737Z,2.10
2022-11-10T18:35:50.012Z,3.35
2022-11-10T18:38:36.026Z,2.78
2022-11-10T18:41:39.860Z,3.50
2022-11-10T18:44:26.205Z,5.20
2022-11-10T18:47:12.903Z,3.08
2022-11-10T18:49:58.027Z,2.75
2022-11-10T18:52:43.925Z,3.60
2022-11-10T18:55:29.041Z,3.63
2022-11-10T18:58:14.255Z,3.13
2022-11-10T19:01:07.883Z,3.40
2022-11-10T19:03:54.060Z,3.15
2022-11-10T19:06:40.118Z,3.40
2022-11-10T19:09:25.727Z,3.17
2022-11-10T19:12:12.007Z,2.80
2022-11-10T19:14:57.253Z,2.67
2022-11-10T19:17:42.806Z,2.72
2022-11-10T19:20:28.023Z,3.70
2022-11-10T19:23:13.462Z,3.00
2022-11-10T19:26:03.485Z,2.95
2022-11-10T19:28:48.715Z,3.00
2022-11-10T19:31:34.227Z,3.35
2022-11-10T19:34:19.626Z,3.58
2022-11-10T19:37:05.685Z,3.60
2022-11-10T19:39:50.809Z,3.58
2022-11-10T19:42:36.085Z,3.85
2022-11-10T19:45:21.225Z,3.47
2022-11-10T19:48:06.610Z,3.22
2022-11-10T19:50:56.172Z,3.08
2022-11-10T19:53:46.069Z,3.10
2022-11-10T19:56:34.379Z,3.58
2022-11-10T19:59:21.034Z,3.10
2022-11-10T20:02:06.575Z,3.10
2022-11-10T20:05:10.220Z,3.88
2022-11-10T20:08:21.498Z,3.05
2022-11-10T20:11:10.848Z,3.30
2022-11-10T20:14:00.393Z,3.05
2022-11-10T20:16:45.648Z,2.92
2022-11-10T20:19:31.157Z,2.80
2022-11-10T20:22:16.556Z,2.72
2022-11-10T20:25:01.959Z,2.58
2022-11-10T20:27:47.378Z,2.72
2022-11-10T20:30:35.045Z,2.92
2022-11-10T20:33:20.337Z,2.83
2022-11-10T20:36:17.552Z,3.25
2022-11-10T20:39:05.148Z,2.67
2022-11-10T20:41:52.427Z,2.83
2022-11-10T20:44:37.620Z,2.40
2022-11-10T20:47:23.156Z,2.45
2022-11-10T20:50:14.089Z,3.05
2022-11-10T20:53:00.829Z,3.20
2022-11-10T20:55:54.150Z,2.50
2022-11-10T20:58:40.579Z,3.00
2022-11-10T21:01:26.203Z,2.60
2022-11-10T21:04:12.613Z,3.00
2022-11-10T21:06:58.145Z,3.05
2022-11-10T21:09:43.385Z,2.70
2022-11-10T21:12:47.657Z,2.70
2022-11-10T21:15:37.224Z,2.85
2022-11-10T21:18:24.096Z,2.63
2022-11-10T21:21:23.572Z,3.00
2022-11-10T21:24:09.670Z,3.10
2022-11-10T21:26:56.243Z,2.47
2022-11-10T21:29:42.245Z,2.63
2022-11-10T21:32:27.989Z,2.90
2022-11-10T21:35:13.122Z,3.47
2022-11-10T21:37:58.395Z,2.35
2022-11-10T21:40:43.717Z,2.90
2022-11-10T21:43:29.495Z,2.95
2022-11-10T21:46:14.923Z,2.70
2022-11-10T21:49:06.150Z,2.58
2022-11-10T21:51:52.724Z,2.80
2022-11-10T21:54:38.019Z,2.67
2022-11-10T21:57:23.675Z,3.08
2022-11-10T22:00:11.248Z,2.60
2022-11-10T22:03:01.050Z,2.55
2022-11-10T22:05:46.493Z,3.22
2022-11-10T22:08:32.257Z,2.50
2022-11-10T22:11:38.265Z,2.33
2022-11-10T22:14:42.364Z,2.63
2022-11-10T22:17:46.927Z,3.50
2022-11-10T22:20:32.420Z,2.60
2022-11-10T22:23:17.771Z,2.40
2022-11-10T22:26:03.352Z,2.30
2022-11-10T22:28:49.132Z,2.55
2022-11-10T22:31:34.694Z,2.60
2022-11-10T22:34:20.311Z,2.53
2022-11-10T22:37:05.546Z,2.40
2022-11-10T22:40:09.567Z,2.70
2022-11-10T22:43:13.391Z,2.50
2022-11-10T22:45:58.770Z,2.75
2022-11-10T22:48:44.222Z,2.50
2022-11-10T22:51:30.807Z,2.50
2022-11-10T22:54:19.014Z,3.15
2022-11-10T22:57:05.146Z,2.85
2022-11-10T22:59:50.434Z,3.00
2022-11-10T23:02:35.634Z,3.10
2022-11-10T23:05:21.507Z,3.17
2022-11-10T23:08:06.585Z,2.92
2022-11-10T23:11:19.951Z,3.03
2022-11-10T23:14:05.010Z,3.30
2022-11-10T23:16:50.421Z,3.30
2022-11-10T23:19:35.614Z,3.22
2022-11-10T23:22:21.104Z,2.67
2022-11-10T23:25:06.977Z,3.25
2022-11-10T23:27:52.238Z,3.40
2022-11-10T23:30:37.639Z,3.45
2022-11-10T23:33:23.701Z,3.47
2022-11-10T23:36:12.116Z,3.20
2022-11-10T23:38:57.272Z,3.00
2022-11-10T23:41:42.609Z,3.05
2022-11-10T23:44:27.916Z,2.70
2022-11-10T23:47:13.374Z,3.17
2022-11-10T23:49:58.579Z,3.17
2022-11-10T23:52:43.934Z,3.55
2022-11-10T23:55:29.448Z,3.60
2022-11-10T23:58:14.856Z,3.22
